Time;durP1;ratioP1;P1;durP2;ratioP2;P2;SDS_P1;SDS_P2;PMS_P1;PMS_P2;Temp;Humidity;BMP_temperature;BMP_pressure;BME280_temperature;BME280_humidity;BME280_pressure;Samples;Min_cycle;Max_cycle;Signal;HPM_P1;HPM_P2
2020/12/31 00:00:05;;;;;;;11.00;9.10;;;1.10;99.90;;;;;;5109296;28;20066;-73
2020/12/31 00:02:32;;;;;;;14.25;10.05;;;1.10;99.90;;;;;;5109896;28;20039;-74
2020/12/31 00:04:58;;;;;;;14.20;9.57;;;1.10;99.90;;;;;;5111482;28;20048;-73
2020/12/31 00:07:25;;;;;;;12.95;10.55;;;1.00;99.90;;;;;;5111480;28;20096;-73
2020/12/31 00:09:52;;;;;;;13.13;10.02;;;1.00;99.90;;;;;;5108714;28;20043;-73
2020/12/31 00:12:18;;;;;;;12.35;8.98;;;1.00;99.90;;;;;;5110064;28;20408;-74
2020/12/31 00:14:45;;;;;;;11.98;8.73;;;1.10;99.90;;;;;;5111336;28;20508;-72
2020/12/31 00:17:11;;;;;;;11.95;8.98;;;1.00;99.90;;;;;;5109818;28;20116;-74
2020/12/31 00:19:38;;;;;;;13.20;8.27;;;0.90;99.90;;;;;;5109050;28;20086;-73
2020/12/31 00:22:04;;;;;;;10.68;8.25;;;0.80;99.90;;;;;;5110885;28;20490;-74
2020/12/31 00:24:31;;;;;;;11.20;8.13;;;0.70;99.90;;;;;;5110069;28;21477;-73
2020/12/31 00:26:57;;;;;;;11.48;9.27;;;0.70;99.90;;;;;;5110763;28;20043;-74
2020/12/31 00:29:23;;;;;;;14.05;8.90;;;0.60;99.90;;;;;;5106530;28;20123;-73
2020/12/31 00:31:50;;;;;;;13.13;9.75;;;0.40;99.90;;;;;;5110878;28;20143;-74
2020/12/31 00:34:16;;;;;;;17.80;10.73;;;0.40;99.90;;;;;;5110471;28;20126;-73
2020/12/31 00:36:42;;;;;;;15.60;10.75;;;0.30;99.90;;;;;;5110100;28;20082;-73
2020/12/31 00:39:09;;;;;;;14.85;10.82;;;0.20;99.90;;;;;;5107975;28;20413;-73
2020/12/31 00:41:35;;;;;;;18.17;11.00;;;0.20;99.90;;;;;;5110722;27;20051;-74
2020/12/31 00:44:02;;;;;;;16.38;11.63;;;0.20;99.90;;;;;;5110930;28;20135;-73
2020/12/31 00:46:28;;;;;;;16.75;11.45;;;0.10;99.90;;;;;;5110615;28;20391;-72
2020/12/31 00:48:54;;;;;;;18.70;13.55;;;0.30;99.90;;;;;;5107227;28;20048;-72
2020/12/31 00:51:21;;;;;;;18.35;12.85;;;0.30;99.90;;;;;;5116376;27;20082;-73
2020/12/31 00:53:47;;;;;;;15.63;12.10;;;0.20;99.90;;;;;;5111614;27;20043;-73
2020/12/31 00:56:14;;;;;;;16.90;11.40;;;0.20;99.90;;;;;;5115583;27;20121;-72
2020/12/31 00:58:40;;;;;;;15.57;11.00;;;0.30;99.90;;;;;;5129510;27;20046;-73
2020/12/31 01:01:07;;;;;;;15.18;10.90;;;0.30;99.90;;;;;;5127620;27;20055;-72
2020/12/31 01:03:33;;;;;;;13.15;9.95;;;0.30;99.90;;;;;;5112165;27;20079;-73
2020/12/31 01:05:59;;;;;;;13.82;9.95;;;0.40;99.90;;;;;;5130654;27;20489;-73
2020/12/31 01:08:26;;;;;;;13.93;10.18;;;0.40;99.90;;;;;;5110862;27;20078;-72
2020/12/31 01:10:53;;;;;;;12.95;9.98;;;0.40;99.90;;;;;;5129003;27;20050;-73
2020/12/31 01:13:19;;;;;;;18.08;9.45;;;0.40;99.90;;;;;;5130980;27;20123;-72
2020/12/31 01:15:46;;;;;;;13.38;8.93;;;0.50;99.90;;;;;;5130018;27;20083;-74
2020/12/31 01:18:13;;;;;;;13.95;10.10;;;0.50;99.90;;;;;;5105090;27;20514;-72
2020/12/31 01:20:39;;;;;;;13.57;9.25;;;0.50;99.90;;;;;;5105856;27;20469;-73
2020/12/31 01:23:06;;;;;;;13.95;9.93;;;0.50;99.90;;;;;;5129670;27;20047;-72
2020/12/31 01:25:34;;;;;;;12.95;8.65;;;0.60;99.90;;;;;;5111153;27;20488;-72
2020/12/31 01:28:02;;;;;;;12.65;8.63;;;0.60;99.90;;;;;;5107680;27;20062;-73
2020/12/31 01:30:29;;;;;;;9.68;8.68;;;0.60;99.90;;;;;;5105163;27;20085;-72
2020/12/31 01:32:56;;;;;;;12.55;8.98;;;0.60;99.90;;;;;;5130150;27;20110;-73
2020/12/31 01:35:22;;;;;;;10.43;7.68;;;0.60;99.90;;;;;;5111451;27;20190;-73
2020/12/31 01:37:49;;;;;;;11.60;8.88;;;0.60;99.90;;;;;;5128733;27;20067;-74
2020/12/31 01:40:15;;;;;;;10.75;7.75;;;0.70;99.90;;;;;;5127712;27;20081;-73
2020/12/31 01:42:42;;;;;;;11.70;7.97;;;0.70;99.90;;;;;;5111028;27;20477;-73
2020/12/31 01:45:09;;;;;;;13.73;8.52;;;0.70;99.90;;;;;;5111624;27;20454;-73
2020/12/31 01:47:36;;;;;;;10.45;7.80;;;0.80;99.90;;;;;;5105397;28;20048;-73
2020/12/31 01:50:04;;;;;;;10.57;8.43;;;0.80;99.90;;;;;;5121452;27;20130;-73
2020/12/31 01:52:33;;;;;;;13.18;8.07;;;0.80;99.90;;;;;;5096988;27;20336;-73
2020/12/31 01:55:02;;;;;;;10.63;7.82;;;0.70;99.90;;;;;;5102142;28;20047;-73
2020/12/31 01:57:36;;;;;;;11.95;8.50;;;0.70;99.90;;;;;;5118707;27;20151;-74
2020/12/31 02:00:03;;;;;;;12.23;8.65;;;0.70;99.90;;;;;;5107410;27;20472;-73
2020/12/31 02:02:53;;;;;;;11.63;7.90;;;0.70;99.90;;;;;;5111739;27;20038;-74
2020/12/31 02:05:20;;;;;;;10.88;7.60;;;0.80;99.90;;;;;;5094933;28;20587;-74
2020/12/31 02:07:47;;;;;;;11.23;7.78;;;0.80;99.90;;;;;;5118482;27;20054;-74
2020/12/31 02:10:14;;;;;;;8.68;7.03;;;0.70;99.90;;;;;;5117899;27;20083;-73
2020/12/31 02:12:42;;;;;;;10.32;6.85;;;0.70;99.90;;;;;;5091424;28;20079;-73
2020/12/31 02:15:17;;;;;;;10.80;7.32;;;0.70;99.90;;;;;;5118982;27;20043;-73
2020/12/31 02:17:44;;;;;;;9.02;6.57;;;0.70;99.90;;;;;;5121747;27;20108;-73
2020/12/31 02:20:12;;;;;;;13.27;7.93;;;0.70;99.90;;;;;;5108350;28;20055;-73
2020/12/31 02:22:38;;;;;;;12.85;7.90;;;0.70;99.90;;;;;;5103877;27;20118;-73
2020/12/31 02:25:05;;;;;;;8.80;6.40;;;0.70;99.90;;;;;;5110489;27;20406;-73
2020/12/31 02:27:32;;;;;;;8.95;6.22;;;0.70;99.90;;;;;;5129356;27;20187;-74
2020/12/31 02:29:59;;;;;;;9.05;6.75;;;0.70;99.90;;;;;;5129188;27;20055;-73
2020/12/31 02:32:26;;;;;;;10.40;7.05;;;0.70;99.90;;;;;;5126975;27;20166;-73
2020/12/31 02:34:52;;;;;;;9.80;6.57;;;0.70;99.90;;;;;;5106832;28;20328;-73
2020/12/31 02:37:18;;;;;;;8.73;6.53;;;0.60;99.90;;;;;;5091187;28;20173;-73
2020/12/31 02:39:44;;;;;;;9.57;6.63;;;0.50;99.90;;;;;;5105385;28;20105;-73
2020/12/31 02:42:11;;;;;;;9.05;5.95;;;0.50;99.90;;;;;;5127712;27;20109;-73
2020/12/31 02:44:37;;;;;;;8.57;6.10;;;0.40;99.90;;;;;;5125220;28;20127;-73
2020/12/31 02:47:04;;;;;;;10.48;6.32;;;0.40;99.90;;;;;;5127112;28;20146;-73
2020/12/31 02:49:30;;;;;;;7.95;5.60;;;0.30;99.90;;;;;;5120060;27;20062;-73
2020/12/31 02:51:57;;;;;;;7.78;6.13;;;0.30;99.90;;;;;;5128757;28;20368;-74
2020/12/31 02:54:23;;;;;;;9.15;6.15;;;0.20;99.90;;;;;;5127077;27;20134;-73
2020/12/31 02:56:49;;;;;;;8.07;5.85;;;0.10;99.90;;;;;;5110744;28;20047;-73
2020/12/31 02:59:16;;;;;;;7.65;5.57;;;0.10;99.90;;;;;;5129296;27;20230;-76
2020/12/31 03:01:42;;;;;;;7.63;5.43;;;0.00;99.90;;;;;;5129558;27;20047;-74
2020/12/31 03:04:08;;;;;;;7.53;4.88;;;0.00;99.90;;;;;;5098943;27;20055;-74
2020/12/31 03:06:35;;;;;;;7.88;5.13;;;0.00;99.90;;;;;;5134021;27;20111;-73
2020/12/31 03:09:01;;;;;;;7.45;5.22;;;0.00;99.90;;;;;;5109020;28;20479;-73
2020/12/31 03:11:28;;;;;;;9.32;4.88;;;-0.10;99.90;;;;;;5121950;27;20089;-73
2020/12/31 03:13:54;;;;;;;6.68;4.70;;;-0.10;99.90;;;;;;5132326;27;20051;-73
2020/12/31 03:16:21;;;;;;;7.53;5.47;;;-0.20;99.90;;;;;;5132183;27;20466;-74
2020/12/31 03:18:48;;;;;;;6.88;5.00;;;-0.20;99.90;;;;;;5132611;27;20090;-73
2020/12/31 03:21:14;;;;;;;10.23;5.30;;;-0.20;99.90;;;;;;5115231;27;20108;-73
2020/12/31 03:23:41;;;;;;;9.95;5.28;;;-0.20;99.90;;;;;;5114300;27;20135;-73
2020/12/31 03:26:07;;;;;;;6.85;4.75;;;-0.20;99.90;;;;;;5103835;27;20039;-73
2020/12/31 03:28:34;;;;;;;5.07;4.28;;;-0.20;99.90;;;;;;5106609;28;20482;-73
2020/12/31 03:31:00;;;;;;;7.60;4.30;;;-0.20;99.90;;;;;;5114624;27;20086;-73
2020/12/31 03:33:27;;;;;;;7.28;4.50;;;-0.20;99.90;;;;;;5130019;27;20043;-74
2020/12/31 03:35:53;;;;;;;6.55;4.45;;;-0.20;99.90;;;;;;5108130;27;20043;-73
2020/12/31 03:38:21;;;;;;;8.52;4.57;;;-0.20;99.90;;;;;;5132354;27;20166;-73
2020/12/31 03:40:48;;;;;;;5.63;4.53;;;-0.30;99.90;;;;;;5131730;27;20062;-73
2020/12/31 03:43:15;;;;;;;8.77;4.32;;;-0.30;99.90;;;;;;5114676;27;20103;-73
2020/12/31 03:45:42;;;;;;;6.40;4.57;;;-0.30;99.90;;;;;;5108163;28;20111;-74
2020/12/31 03:48:09;;;;;;;6.97;4.38;;;-0.30;99.90;;;;;;5106979;27;20054;-73
2020/12/31 03:50:36;;;;;;;6.47;4.55;;;-0.30;99.90;;;;;;5132025;27;20039;-74
2020/12/31 03:53:03;;;;;;;7.15;4.35;;;-0.30;99.90;;;;;;5132159;27;20055;-73
2020/12/31 03:55:30;;;;;;;5.93;4.72;;;-0.40;99.90;;;;;;5129714;27;20134;-74
2020/12/31 03:57:56;;;;;;;6.03;4.28;;;-0.50;99.90;;;;;;5113518;27;20078;-73
2020/12/31 04:00:24;;;;;;;5.68;4.50;;;-0.50;99.90;;;;;;5132237;27;20127;-74
2020/12/31 04:02:50;;;;;;;8.40;4.63;;;-0.50;99.90;;;;;;5113441;27;20155;-73
2020/12/31 04:05:16;;;;;;;7.82;5.30;;;-0.50;99.90;;;;;;5130319;27;20404;-74
2020/12/31 04:07:43;;;;;;;7.60;4.50;;;-0.50;99.90;;;;;;5129997;27;20085;-74
2020/12/31 04:10:09;;;;;;;6.75;4.20;;;-0.60;99.90;;;;;;5118324;27;20135;-73
2020/12/31 04:12:36;;;;;;;9.75;4.57;;;-0.60;99.90;;;;;;5130311;27;20111;-73
2020/12/31 04:15:03;;;;;;;5.93;4.38;;;-0.60;99.90;;;;;;5131307;27;20054;-73
2020/12/31 04:17:29;;;;;;;6.85;4.60;;;-0.60;99.90;;;;;;5112988;27;20139;-74
2020/12/31 04:19:55;;;;;;;6.20;4.90;;;-0.60;99.90;;;;;;5127895;27;20043;-74
2020/12/31 04:22:22;;;;;;;7.13;4.63;;;-0.70;99.90;;;;;;5131630;27;20118;-74
2020/12/31 04:24:50;;;;;;;6.65;4.72;;;-0.70;99.90;;;;;;5131271;27;20051;-73
2020/12/31 04:27:16;;;;;;;7.35;5.20;;;-0.60;99.90;;;;;;5117959;27;20142;-74
2020/12/31 04:29:43;;;;;;;6.88;4.20;;;-0.50;99.90;;;;;;5131481;27;20066;-72
2020/12/31 04:32:09;;;;;;;7.70;4.95;;;-0.50;99.90;;;;;;5129196;27;20523;-73
2020/12/31 04:34:35;;;;;;;6.53;4.57;;;-0.50;99.90;;;;;;5110417;27;20778;-73
2020/12/31 04:37:04;;;;;;;6.20;4.80;;;-0.50;99.90;;;;;;5122439;27;20139;-73
2020/12/31 04:39:31;;;;;;;6.53;4.40;;;-0.60;99.90;;;;;;5126142;27;20063;-73
2020/12/31 04:41:58;;;;;;;5.63;4.05;;;-0.60;99.90;;;;;;5119217;27;20529;-72
2020/12/31 04:44:25;;;;;;;6.45;5.00;;;-0.60;99.90;;;;;;5101844;27;20120;-73
2020/12/31 04:46:57;;;;;;;6.15;4.20;;;-0.70;99.90;;;;;;5112725;27;20080;-73
2020/12/31 04:49:43;;;;;;;6.07;4.47;;;-0.70;99.90;;;;;;5131008;27;20047;-74
2020/12/31 04:52:11;;;;;;;5.90;4.80;;;-0.80;99.90;;;;;;5131150;27;20107;-73
2020/12/31 04:54:40;;;;;;;7.63;5.20;;;-0.80;99.90;;;;;;5108769;27;20178;-73
2020/12/31 04:57:07;;;;;;;6.68;5.18;;;-0.90;99.90;;;;;;5130478;27;20137;-74
2020/12/31 04:59:33;;;;;;;7.43;4.55;;;-1.00;99.90;;;;;;5131284;27;20474;-73
2020/12/31 05:02:00;;;;;;;5.70;4.88;;;-1.10;99.90;;;;;;5130274;27;20122;-72
2020/12/31 05:04:27;;;;;;;6.50;4.80;;;-1.10;99.90;;;;;;5098421;27;20137;-74
2020/12/31 05:06:54;;;;;;;35.63;16.80;;;-1.10;99.90;;;;;;5131072;27;20043;-72
2020/12/31 05:09:21;;;;;;;34.90;17.20;;;-1.10;99.90;;;;;;5116392;27;20142;-72
2020/12/31 05:11:51;;;;;;;11.93;7.18;;;-1.10;99.90;;;;;;5130668;27;20446;-73
2020/12/31 05:14:28;;;;;;;7.10;5.00;;;-1.20;99.90;;;;;;5130653;27;20050;-73
2020/12/31 05:16:54;;;;;;;6.72;4.50;;;-1.30;99.90;;;;;;5122627;27;20123;-73
2020/12/31 05:19:25;;;;;;;6.72;4.45;;;-1.20;99.90;;;;;;5110367;27;20518;-73
2020/12/31 05:22:19;;;;;;;6.28;4.72;;;-1.30;99.90;;;;;;5112395;27;20043;-72
2020/12/31 05:24:50;;;;;;;6.57;5.22;;;-1.30;99.90;;;;;;5112110;27;20416;-72
2020/12/31 05:27:28;;;;;;;7.72;5.65;;;-1.30;99.90;;;;;;5129633;27;20124;-74
2020/12/31 05:30:13;;;;;;;6.03;4.70;;;-1.30;99.90;;;;;;5128981;27;20074;-73
2020/12/31 05:32:40;;;;;;;6.68;4.70;;;-1.30;99.90;;;;;;5130016;27;20494;-73
2020/12/31 05:35:16;;;;;;;7.20;5.22;;;-1.30;99.90;;;;;;5130452;27;20459;-73
2020/12/31 05:37:43;;;;;;;11.23;5.28;;;-1.30;99.90;;;;;;5111383;27;20046;-73
2020/12/31 05:40:11;;;;;;;7.03;4.97;;;-1.30;99.90;;;;;;5119392;27;20043;-73
2020/12/31 05:42:42;;;;;;;6.82;4.97;;;-1.30;99.90;;;;;;5130023;27;20043;-73
2020/12/31 05:45:13;;;;;;;8.68;5.07;;;-1.30;99.90;;;;;;5130353;27;20549;-73
2020/12/31 05:47:49;;;;;;;6.32;4.70;;;-1.40;99.90;;;;;;5123772;27;20043;-72
2020/12/31 05:50:25;;;;;;;8.15;5.93;;;-1.30;99.90;;;;;;5098496;27;20552;-73
2020/12/31 05:52:53;;;;;;;7.47;5.18;;;-1.30;99.90;;;;;;5107679;28;20470;-73
2020/12/31 05:55:25;;;;;;;9.32;5.75;;;-1.40;99.90;;;;;;5107873;28;20460;-73
2020/12/31 05:57:52;;;;;;;8.27;5.75;;;-1.40;99.90;;;;;;5108695;28;20120;-73
2020/12/31 06:00:23;;;;;;;8.25;5.80;;;-1.40;99.90;;;;;;5100191;28;20139;-73
2020/12/31 06:02:54;;;;;;;9.05;6.07;;;-1.30;99.90;;;;;;5100184;28;20452;-73
2020/12/31 06:05:22;;;;;;;7.72;5.72;;;-1.30;99.90;;;;;;5106211;28;20384;-74
2020/12/31 06:07:56;;;;;;;7.63;5.80;;;-1.30;99.90;;;;;;5102607;28;20044;-73
2020/12/31 06:10:28;;;;;;;7.50;5.53;;;-1.30;99.90;;;;;;5089224;28;20048;-73
2020/12/31 06:13:02;;;;;;;8.93;5.75;;;-1.20;99.90;;;;;;5109121;28;20124;-72
2020/12/31 06:15:31;;;;;;;9.13;5.93;;;-1.20;99.90;;;;;;5107664;28;20158;-74
2020/12/31 06:18:00;;;;;;;8.57;5.28;;;-1.20;99.90;;;;;;5105480;28;20059;-73
2020/12/31 06:20:29;;;;;;;7.10;5.05;;;-1.10;99.90;;;;;;5107084;28;20139;-73
2020/12/31 06:23:01;;;;;;;7.07;5.57;;;-1.00;99.90;;;;;;5108496;28;20039;-72
2020/12/31 06:25:45;;;;;;;7.75;5.30;;;-1.00;99.90;;;;;;5108220;28;20105;-73
2020/12/31 06:28:24;;;;;;;6.72;5.15;;;-1.00;99.90;;;;;;5108999;28;20142;-72
2020/12/31 06:30:52;;;;;;;9.25;5.78;;;-1.00;99.90;;;;;;5097242;28;20486;-73
2020/12/31 06:33:39;;;;;;;9.18;5.63;;;-1.00;99.90;;;;;;5108679;28;20103;-72
2020/12/31 06:36:05;;;;;;;9.07;5.82;;;-1.00;99.90;;;;;;5108846;28;20044;-72
2020/12/31 06:38:37;;;;;;;8.07;5.55;;;-1.00;99.90;;;;;;5108117;28;20113;-74
2020/12/31 06:41:05;;;;;;;;;;;-1.00;99.90;;;;;;5106279;28;20095;-73
2020/12/31 06:43:36;;;;;;;8.38;5.43;;;-1.00;99.90;;;;;;5101472;28;19958;-74
2020/12/31 06:46:17;;;;;;;4.78;4.10;;;-1.00;99.90;;;;;;5102721;28;20048;-73
2020/12/31 06:48:49;;;;;;;7.93;5.43;;;-1.00;99.90;;;;;;5108234;28;20120;-73
2020/12/31 06:51:23;;;;;;;6.65;5.40;;;-1.00;99.90;;;;;;5112399;28;20446;-73
2020/12/31 06:53:50;;;;;;;7.80;5.60;;;-1.10;99.90;;;;;;5124080;28;20181;-73
2020/12/31 06:56:43;;;;;;;9.20;5.53;;;-1.10;99.90;;;;;;5121718;28;20044;-74
2020/12/31 06:59:29;;;;;;;10.23;5.70;;;-1.10;99.90;;;;;;5122406;27;20043;-73
2020/12/31 07:02:00;;;;;;;8.73;6.28;;;-1.10;99.90;;;;;;5115732;28;20478;-74
2020/12/31 07:04:32;;;;;;;9.50;6.50;;;-1.20;99.90;;;;;;5102091;28;20527;-73
2020/12/31 07:07:00;;;;;;;8.32;5.80;;;-1.10;99.90;;;;;;5117497;28;20131;-76
2020/12/31 07:09:35;;;;;;;9.30;6.15;;;-1.20;99.90;;;;;;5107261;28;20143;-77
2020/12/31 07:12:06;;;;;;;7.47;6.25;;;-1.20;99.90;;;;;;5122957;28;20051;-78
2020/12/31 07:14:36;;;;;;;10.98;6.30;;;-1.10;99.90;;;;;;5111094;28;20099;-77
2020/12/31 07:17:07;;;;;;;9.85;6.65;;;-1.10;99.90;;;;;;5128501;27;20421;-77
2020/12/31 07:19:44;;;;;;;9.48;6.32;;;-1.00;99.90;;;;;;5114731;28;20114;-77
2020/12/31 07:22:11;;;;;;;9.32;7.25;;;-1.00;99.90;;;;;;5115016;28;20123;-79
2020/12/31 07:24:50;;;;;;;14.07;7.30;;;-0.90;99.90;;;;;;5128405;28;20074;-78
2020/12/31 07:27:27;;;;;;;11.48;6.80;;;-0.80;99.90;;;;;;5129267;27;20118;-78
2020/12/31 07:29:57;;;;;;;14.70;8.90;;;-0.80;99.90;;;;;;5115844;28;20043;-78
2020/12/31 07:32:59;;;;;;;10.10;6.97;;;-0.70;99.90;;;;;;5127527;28;20135;-76
2020/12/31 07:35:30;;;;;;;10.50;6.95;;;-0.70;99.90;;;;;;5119463;28;20086;-77
2020/12/31 07:37:58;;;;;;;7.75;6.60;;;-0.70;99.90;;;;;;5128436;28;20473;-75
2020/12/31 07:40:32;;;;;;;9.93;6.88;;;-0.60;99.90;;;;;;5128454;27;20081;-77
2020/12/31 07:42:59;;;;;;;9.30;6.80;;;-0.60;99.90;;;;;;5116623;28;20078;-77
2020/12/31 07:45:27;;;;;;;11.27;6.95;;;-0.50;99.90;;;;;;5108709;28;20043;-76
2020/12/31 07:47:55;;;;;;;10.52;7.32;;;-0.50;99.90;;;;;;5108768;28;20040;-74
2020/12/31 07:50:22;;;;;;;9.70;7.07;;;-0.50;99.90;;;;;;5110897;28;20101;-75
2020/12/31 07:52:50;;;;;;;11.02;7.15;;;-0.40;99.90;;;;;;5111695;27;20136;-78
2020/12/31 07:55:17;;;;;;;11.20;6.82;;;-0.40;99.90;;;;;;5111358;27;20072;-80
2020/12/31 07:57:43;;;;;;;10.82;7.65;;;-0.40;99.90;;;;;;5111823;28;20039;-79
2020/12/31 08:00:13;;;;;;;12.88;6.97;;;-0.30;99.90;;;;;;5112250;28;20142;-76
2020/12/31 08:02:54;;;;;;;8.52;6.38;;;-0.30;99.90;;;;;;5112816;27;20039;-74
2020/12/31 08:05:26;;;;;;;9.43;6.63;;;-0.20;99.90;;;;;;5096345;28;20047;-74
2020/12/31 08:07:57;;;;;;;8.18;6.53;;;-0.20;99.90;;;;;;5111147;28;20169;-73
2020/12/31 08:10:37;;;;;;;10.18;6.63;;;-0.20;99.90;;;;;;5111150;27;20071;-74
2020/12/31 08:13:05;;;;;;;9.68;6.82;;;-0.10;99.90;;;;;;5116079;27;20059;-73
2020/12/31 08:15:32;;;;;;;10.18;6.40;;;-0.10;99.90;;;;;;5093797;28;20470;-73
2020/12/31 08:18:03;;;;;;;8.82;6.57;;;0.00;99.90;;;;;;5094294;28;20056;-75
2020/12/31 08:20:37;;;;;;;10.07;6.10;;;0.00;99.90;;;;;;5111725;27;20046;-73
2020/12/31 08:23:12;;;;;;;11.43;7.25;;;0.10;99.90;;;;;;5113686;27;20074;-74
2020/12/31 08:25:42;;;;;;;16.52;9.95;;;0.10;99.90;;;;;;5114090;27;20071;-75
2020/12/31 08:28:09;;;;;;;14.55;9.50;;;0.10;99.90;;;;;;5096659;28;20048;-73
2020/12/31 08:30:37;;;;;;;13.57;9.20;;;0.20;99.90;;;;;;5110693;27;20176;-73
2020/12/31 08:33:07;;;;;;;13.05;9.38;;;0.30;99.90;;;;;;5112543;27;20097;-73
2020/12/31 08:35:44;;;;;;;12.07;9.00;;;0.30;99.90;;;;;;5095314;28;20058;-74
2020/12/31 08:38:15;;;;;;;9.98;7.03;;;0.30;99.90;;;;;;5092950;27;20100;-73
2020/12/31 08:40:49;;;;;;;11.40;8.68;;;0.40;99.90;;;;;;5091769;28;20493;-73
2020/12/31 08:43:36;;;;;;;7.88;6.63;;;0.40;99.90;;;;;;5115973;27;20485;-74
2020/12/31 08:46:05;;;;;;;8.55;6.78;;;0.40;99.90;;;;;;5116389;27;20411;-74
2020/12/31 08:48:39;;;;;;;10.10;6.85;;;0.40;99.90;;;;;;5095549;28;20075;-75
2020/12/31 08:51:07;;;;;;;9.15;6.65;;;0.50;99.90;;;;;;5094460;28;20067;-73
2020/12/31 08:53:58;;;;;;;8.18;6.57;;;0.50;99.90;;;;;;5097676;28;20064;-74
2020/12/31 08:56:29;;;;;;;9.95;7.32;;;0.50;99.90;;;;;;5110405;27;20044;-74
2020/12/31 08:59:16;;;;;;;9.93;7.13;;;0.60;99.90;;;;;;5096088;28;20432;-73
2020/12/31 09:01:44;;;;;;;9.63;7.25;;;0.60;99.90;;;;;;5093393;27;20385;-74
2020/12/31 09:04:18;;;;;;;8.63;6.22;;;0.70;99.90;;;;;;5094389;27;20052;-74
2020/12/31 09:06:52;;;;;;;9.68;6.78;;;0.70;99.90;;;;;;5105910;27;20072;-73
2020/12/31 09:09:22;;;;;;;8.10;6.40;;;0.80;99.90;;;;;;5118358;27;20047;-74
2020/12/31 09:11:58;;;;;;;10.57;7.22;;;0.80;99.90;;;;;;5114918;27;20047;-74
2020/12/31 09:14:28;;;;;;;10.60;6.00;;;0.90;99.90;;;;;;5094736;28;20519;-74
2020/12/31 09:16:58;;;;;;;8.30;5.90;;;0.90;99.90;;;;;;5110819;27;20048;-73
2020/12/31 09:19:26;;;;;;;7.70;5.95;;;1.10;99.90;;;;;;5096450;28;20050;-74
2020/12/31 09:21:53;;;;;;;7.60;6.20;;;1.10;99.90;;;;;;5110310;27;20048;-74
2020/12/31 09:24:21;;;;;;;10.02;6.93;;;1.20;99.90;;;;;;5101465;27;20588;-74
2020/12/31 09:26:53;;;;;;;7.28;5.60;;;1.30;99.90;;;;;;5110336;28;20048;-74
2020/12/31 09:29:20;;;;;;;8.15;6.13;;;1.40;99.90;;;;;;5097924;28;20040;-74
2020/12/31 09:31:47;;;;;;;7.80;5.70;;;1.40;99.90;;;;;;5112291;27;20043;-74
2020/12/31 09:34:14;;;;;;;8.18;6.22;;;1.40;99.90;;;;;;5110026;27;20035;-74
2020/12/31 09:36:41;;;;;;;7.85;5.75;;;1.50;99.90;;;;;;5111699;27;20052;-73
2020/12/31 09:39:08;;;;;;;6.95;5.78;;;1.50;99.90;;;;;;5109804;27;20039;-74
2020/12/31 09:41:36;;;;;;;7.63;6.32;;;1.40;99.90;;;;;;5114109;27;20474;-74
2020/12/31 09:44:04;;;;;;;7.43;6.43;;;1.40;99.90;;;;;;5091293;28;20104;-74
2020/12/31 09:46:31;;;;;;;11.35;6.30;;;1.50;99.90;;;;;;5102093;27;20046;-73
2020/12/31 09:48:58;;;;;;;8.23;5.85;;;1.50;99.90;;;;;;5114138;27;20144;-75
2020/12/31 09:51:25;;;;;;;7.32;5.07;;;1.60;99.90;;;;;;5111388;27;20139;-74
2020/12/31 09:53:52;;;;;;;11.20;6.30;;;1.60;99.90;;;;;;5112191;27;20047;-73
2020/12/31 09:56:19;;;;;;;7.55;6.13;;;1.70;99.90;;;;;;5111304;27;20062;-74
2020/12/31 09:58:46;;;;;;;10.38;7.20;;;1.80;99.90;;;;;;5114263;27;20044;-73
2020/12/31 10:01:14;;;;;;;8.05;6.22;;;1.90;99.90;;;;;;5112701;27;20071;-73
2020/12/31 10:03:41;;;;;;;7.72;5.85;;;2.10;99.90;;;;;;5109832;27;20458;-73
2020/12/31 10:06:08;;;;;;;6.25;5.32;;;2.30;99.90;;;;;;5093805;28;20134;-74
2020/12/31 10:08:35;;;;;;;8.57;6.45;;;2.40;99.90;;;;;;5114049;27;20135;-74
2020/12/31 10:11:04;;;;;;;7.72;6.13;;;2.50;99.90;;;;;;5096935;27;20047;-74
2020/12/31 10:13:31;;;;;;;8.40;5.40;;;2.40;99.90;;;;;;5119266;27;20379;-75
2020/12/31 10:16:06;;;;;;;6.35;5.15;;;2.40;99.90;;;;;;5095722;28;20051;-73
2020/12/31 10:18:33;;;;;;;8.23;5.20;;;2.20;99.90;;;;;;5110156;27;20047;-74
2020/12/31 10:20:59;;;;;;;9.98;6.28;;;2.00;99.90;;;;;;5110987;27;20051;-73
2020/12/31 10:23:26;;;;;;;7.68;6.13;;;1.90;99.90;;;;;;5114809;27;20055;-74
2020/12/31 10:25:53;;;;;;;10.38;6.82;;;1.70;99.90;;;;;;5114698;27;20122;-73
2020/12/31 10:28:20;;;;;;;11.00;7.13;;;1.50;99.90;;;;;;5116731;27;20054;-74
2020/12/31 10:30:48;;;;;;;12.43;7.53;;;1.40;99.90;;;;;;5096859;28;20158;-76
2020/12/31 10:33:15;;;;;;;14.63;8.27;;;1.20;99.90;;;;;;5096871;28;20071;-73
2020/12/31 10:35:43;;;;;;;12.30;8.60;;;1.00;99.90;;;;;;5093011;28;20043;-74
2020/12/31 10:38:10;;;;;;;10.82;8.00;;;0.80;99.90;;;;;;5112979;27;20051;-73
2020/12/31 10:40:36;;;;;;;14.55;8.48;;;0.80;99.90;;;;;;5114355;28;20073;-73
2020/12/31 10:43:03;;;;;;;11.93;8.05;;;0.80;99.90;;;;;;5096832;28;20047;-73
2020/12/31 10:45:29;;;;;;;12.75;9.00;;;0.80;99.90;;;;;;5102980;27;20052;-73
2020/12/31 10:47:56;;;;;;;11.38;8.88;;;0.80;99.90;;;;;;5099660;28;20084;-72
2020/12/31 10:50:22;;;;;;;15.30;9.57;;;0.80;99.90;;;;;;5096570;28;20046;-73
2020/12/31 10:52:49;;;;;;;9.70;7.70;;;0.90;99.90;;;;;;5114577;27;20052;-73
2020/12/31 10:55:16;;;;;;;12.57;8.30;;;0.80;99.90;;;;;;5098663;28;20524;-73
2020/12/31 10:57:43;;;;;;;16.50;9.00;;;0.80;99.90;;;;;;5095633;28;20039;-73
2020/12/31 11:00:09;;;;;;;13.60;8.63;;;0.90;99.90;;;;;;5099564;28;20131;-73
2020/12/31 11:02:36;;;;;;;16.63;9.55;;;1.00;99.90;;;;;;5114601;28;20758;-75
2020/12/31 11:05:05;;;;;;;15.90;10.27;;;1.10;99.90;;;;;;5110026;28;20048;-73
2020/12/31 11:07:32;;;;;;;15.23;9.98;;;1.20;99.90;;;;;;5098646;28;20166;-74
2020/12/31 11:09:59;;;;;;;16.30;9.95;;;1.30;99.90;;;;;;5114944;27;20066;-73
2020/12/31 11:12:26;;;;;;;13.15;9.05;;;1.50;99.90;;;;;;5111379;28;20104;-74
2020/12/31 11:14:53;;;;;;;12.95;9.45;;;1.60;99.90;;;;;;5101948;28;20100;-74
2020/12/31 11:17:19;;;;;;;14.95;9.68;;;1.80;99.90;;;;;;5103140;28;20115;-74
2020/12/31 11:19:46;;;;;;;9.23;6.88;;;1.80;99.90;;;;;;5110483;28;20043;-76
2020/12/31 11:22:13;;;;;;;15.40;9.32;;;1.80;99.90;;;;;;5113792;28;20056;-74
2020/12/31 11:24:39;;;;;;;23.27;10.73;;;1.80;99.90;;;;;;5118124;27;20047;-72
2020/12/31 11:27:06;;;;;;;22.05;12.25;;;1.70;99.90;;;;;;5119000;27;20254;-74
2020/12/31 11:29:33;;;;;;;18.10;10.80;;;1.70;99.90;;;;;;5117945;27;20055;-74
2020/12/31 11:32:01;;;;;;;13.13;8.82;;;1.60;99.90;;;;;;5118761;27;20131;-74
2020/12/31 11:34:28;;;;;;;18.10;11.20;;;1.50;99.90;;;;;;5117434;27;20051;-73
2020/12/31 11:36:55;;;;;;;32.28;19.08;;;1.50;99.90;;;;;;5119238;27;20036;-73
2020/12/31 11:39:23;;;;;;;22.75;14.02;;;1.60;99.90;;;;;;5115995;27;20055;-73
2020/12/31 11:41:55;;;;;;;21.08;12.43;;;1.60;99.90;;;;;;5096207;28;20117;-73
2020/12/31 11:44:23;;;;;;;22.02;11.73;;;1.60;99.90;;;;;;5098164;28;20051;-74
2020/12/31 11:46:50;;;;;;;16.42;10.13;;;1.60;99.90;;;;;;5098182;28;20410;-77
2020/12/31 11:49:18;;;;;;;10.60;7.88;;;1.70;99.90;;;;;;5097681;27;20043;-74
2020/12/31 11:51:45;;;;;;;21.73;12.50;;;1.70;99.90;;;;;;5115789;27;20043;-73
2020/12/31 11:54:11;;;;;;;19.40;11.20;;;1.70;99.90;;;;;;5118162;27;20062;-74
2020/12/31 11:56:39;;;;;;;10.30;7.32;;;1.80;99.90;;;;;;5114478;27;20126;-73
2020/12/31 11:59:06;;;;;;;10.93;6.57;;;1.80;99.90;;;;;;5114508;27;20070;-73
2020/12/31 12:01:32;;;;;;;13.20;7.60;;;1.80;99.90;;;;;;5100818;28;20057;-74
2020/12/31 12:03:59;;;;;;;9.93;7.13;;;1.80;99.90;;;;;;5122173;27;20055;-74
2020/12/31 12:06:26;;;;;;;9.85;7.38;;;1.90;99.90;;;;;;5117692;27;20149;-74
2020/12/31 12:08:53;;;;;;;8.43;6.85;;;1.90;99.90;;;;;;5126605;27;20096;-74
2020/12/31 12:11:27;;;;;;;10.77;7.20;;;1.80;99.90;;;;;;5110815;27;20107;-74
2020/12/31 12:13:54;;;;;;;10.32;6.22;;;1.90;99.90;;;;;;5110625;27;20476;-74
2020/12/31 12:16:21;;;;;;;11.55;7.47;;;1.90;99.90;;;;;;5132007;27;20051;-75
2020/12/31 12:18:47;;;;;;;14.20;7.88;;;1.90;99.90;;;;;;5109258;27;20123;-75
2020/12/31 12:21:18;;;;;;;14.00;7.72;;;2.00;99.90;;;;;;5113384;27;20039;-75
2020/12/31 12:23:45;;;;;;;13.43;7.65;;;2.00;99.90;;;;;;5124823;27;20054;-74
2020/12/31 12:26:16;;;;;;;9.38;6.50;;;2.00;99.90;;;;;;5125407;27;20062;-74
2020/12/31 12:28:42;;;;;;;10.70;6.60;;;2.00;99.90;;;;;;5126043;27;20054;-74
2020/12/31 12:31:09;;;;;;;8.70;6.30;;;2.00;99.90;;;;;;5127707;27;20078;-75
2020/12/31 12:33:35;;;;;;;10.40;6.50;;;2.00;99.90;;;;;;5108343;27;20035;-74
2020/12/31 12:36:02;;;;;;;11.10;7.00;;;1.90;99.90;;;;;;5101389;28;20047;-74
2020/12/31 12:38:28;;;;;;;8.65;6.03;;;2.00;99.90;;;;;;5119389;27;20059;-74
2020/12/31 12:40:55;;;;;;;10.18;6.63;;;2.00;99.90;;;;;;5098341;27;20463;-74
2020/12/31 12:43:21;;;;;;;11.98;6.95;;;2.00;99.90;;;;;;5100401;27;20079;-75
2020/12/31 12:45:48;;;;;;;14.63;7.80;;;2.00;99.90;;;;;;5095435;27;20076;-74
2020/12/31 12:48:14;;;;;;;9.38;7.00;;;2.00;99.90;;;;;;5114581;27;20447;-73
2020/12/31 12:50:40;;;;;;;13.15;7.25;;;2.10;99.90;;;;;;5115392;27;20047;-74
2020/12/31 12:53:07;;;;;;;9.15;6.68;;;2.10;99.90;;;;;;5114603;27;20051;-73
2020/12/31 12:55:33;;;;;;;9.25;6.00;;;2.10;99.90;;;;;;5094045;28;20115;-73